createdAt,value
2022-10-02T00:02:47.326Z,10.70
2022-10-02T00:08:57.050Z,10.70
2022-10-02T00:15:13.428Z,10.70
2022-10-02T00:21:45.388Z,10.60
2022-10-02T00:28:16.781Z,10.70
2022-10-02T00:34:49.416Z,10.50
2022-10-02T00:41:43.392Z,10.30
2022-10-02T00:55:48.154Z,10.30
2022-10-02T01:02:14.147Z,10.50
2022-10-02T01:08:17.394Z,10.40
2022-10-02T01:14:19.477Z,10.50
2022-10-02T01:20:41.634Z,10.60
2022-10-02T01:33:02.683Z,10.70
2022-10-02T01:39:04.927Z,10.90
2022-10-02T01:45:08.972Z,10.90
2022-10-02T01:51:22.607Z,11.00
2022-10-02T01:57:46.462Z,11.00
2022-10-02T02:11:23.878Z,10.80
2022-10-02T02:18:03.316Z,10.60
2022-10-02T02:24:24.554Z,10.70
2022-10-02T02:30:30.161Z,10.60
2022-10-02T02:36:44.850Z,10.70
2022-10-02T02:42:58.533Z,10.90
2022-10-02T02:49:11.608Z,11.00
2022-10-02T02:55:20.119Z,11.20
2022-10-02T03:01:22.576Z,11.20
2022-10-02T03:07:24.735Z,11.30
2022-10-02T03:14:46.801Z,11.40
2022-10-02T03:21:21.641Z,11.40
2022-10-02T03:27:43.117Z,11.40
2022-10-02T03:33:50.144Z,11.40
2022-10-02T03:39:52.601Z,11.40
2022-10-02T03:45:54.805Z,11.50
2022-10-02T03:51:56.681Z,11.50
2022-10-02T03:58:04.574Z,11.40
2022-10-02T04:04:17.733Z,11.40
2022-10-02T04:10:57.571Z,11.40
2022-10-02T04:17:20.831Z,11.50
2022-10-02T04:23:39.748Z,11.50
2022-10-02T04:30:06.835Z,11.60
2022-10-02T04:36:38.548Z,11.50
2022-10-02T04:43:07.822Z,11.50
2022-10-02T04:50:04.281Z,11.60
2022-10-02T04:56:09.185Z,11.60
2022-10-02T05:02:34.706Z,11.70
2022-10-02T05:09:48.127Z,11.70
2022-10-02T05:16:29.340Z,11.80
2022-10-02T05:22:55.099Z,11.70
2022-10-02T05:29:21.817Z,11.70
2022-10-02T05:35:35.572Z,11.70
2022-10-02T05:42:02.559Z,11.70
2022-10-02T05:49:14.255Z,11.70
2022-10-02T05:55:28.107Z,11.70
2022-10-02T06:01:47.591Z,11.70
2022-10-02T06:07:57.829Z,11.80
2022-10-02T06:14:10.394Z,11.80
2022-10-02T06:20:18.152Z,11.80
2022-10-02T06:27:04.561Z,11.80
2022-10-02T06:33:09.323Z,11.90
2022-10-02T06:46:49.394Z,12.20
2022-10-02T06:53:35.215Z,12.30
2022-10-02T07:00:16.480Z,12.40
2022-10-02T07:07:16.074Z,12.50
2022-10-02T07:13:36.582Z,12.80
2022-10-02T07:19:50.432Z,12.90
2022-10-02T07:27:01.222Z,13.20
2022-10-02T07:33:30.230Z,13.30
2022-10-02T07:40:13.453Z,13.30
2022-10-02T07:46:39.375Z,13.60
2022-10-02T07:53:13.463Z,13.70
2022-10-02T07:59:41.578Z,13.70
2022-10-02T08:05:54.569Z,13.80
2022-10-02T08:12:43.094Z,13.90
2022-10-02T08:18:52.795Z,14.20
2022-10-02T08:25:06.083Z,14.80
2022-10-02T08:31:13.601Z,15.30
2022-10-02T08:45:53.272Z,14.90
2022-10-02T08:58:58.078Z,14.90
2022-10-02T09:05:46.997Z,15.00
2022-10-02T09:12:30.431Z,15.20
2022-10-02T09:19:05.454Z,16.00
2022-10-02T09:25:22.539Z,15.90
2022-10-02T09:32:09.548Z,15.80
2022-10-02T09:38:27.192Z,15.40
2022-10-02T09:45:01.419Z,15.30
2022-10-02T09:51:52.677Z,15.40
2022-10-02T09:58:44.771Z,15.80
2022-10-02T10:05:57.899Z,15.90
2022-10-02T10:12:37.490Z,16.70
2022-10-02T10:19:15.707Z,16.40
2022-10-02T10:26:07.129Z,16.00
2022-10-02T10:32:30.980Z,15.80
2022-10-02T10:39:20.305Z,15.70
2022-10-02T10:46:06.419Z,15.70
2022-10-02T10:52:25.943Z,15.70
2022-10-02T10:59:09.135Z,15.70
2022-10-02T11:05:42.992Z,15.70
2022-10-02T11:12:23.165Z,15.80
2022-10-02T11:18:42.930Z,17.50
2022-10-02T11:25:40.883Z,18.40
2022-10-02T11:32:44.254Z,19.00
2022-10-02T11:39:15.803Z,19.60
2022-10-02T11:45:38.439Z,18.50
2022-10-02T11:52:06.100Z,17.60
2022-10-02T11:58:45.088Z,17.00
2022-10-02T12:05:31.512Z,16.70
2022-10-02T12:12:29.260Z,16.70
2022-10-02T12:25:46.428Z,16.10
2022-10-02T12:31:54.091Z,15.90
2022-10-02T12:38:16.838Z,15.70
2022-10-02T12:45:16.447Z,15.40
2022-10-02T12:51:44.192Z,15.10
2022-10-02T12:58:25.209Z,15.00
2022-10-02T13:04:34.975Z,15.70
2022-10-02T13:10:57.350Z,15.60
2022-10-02T13:17:17.798Z,15.30
2022-10-02T13:23:58.866Z,15.10
2022-10-02T13:30:24.144Z,15.00
2022-10-02T13:36:55.687Z,15.40
2022-10-02T13:43:34.498Z,17.80
2022-10-02T13:56:36.727Z,20.80
2022-10-02T14:03:24.505Z,19.90
2022-10-02T14:09:58.037Z,18.00
2022-10-02T14:16:50.239Z,17.50
2022-10-02T14:23:47.546Z,18.90
2022-10-02T14:36:20.892Z,23.00
2022-10-02T14:42:48.189Z,23.90
2022-10-02T14:49:32.069Z,24.70
2022-10-02T14:55:56.900Z,24.50
2022-10-02T15:02:13.984Z,22.00
2022-10-02T15:08:48.049Z,19.80
2022-10-02T15:15:15.968Z,17.60
2022-10-02T15:21:38.039Z,15.70
2022-10-02T15:28:12.088Z,14.70
2022-10-02T15:34:23.625Z,14.20
2022-10-02T15:40:54.993Z,13.90
2022-10-02T15:55:22.428Z,13.50
2022-10-02T16:01:55.499Z,13.50
2022-10-02T16:08:19.504Z,14.50
2022-10-02T16:15:02.738Z,15.80
2022-10-02T16:21:55.260Z,16.30
2022-10-02T16:28:41.361Z,16.10
2022-10-02T16:35:12.477Z,16.00
2022-10-02T16:41:49.732Z,15.20
2022-10-02T16:48:15.088Z,14.40
2022-10-02T16:54:35.419Z,14.10
2022-10-02T17:00:59.467Z,13.90
2022-10-02T17:07:15.615Z,13.70
2022-10-02T17:14:04.899Z,13.70
2022-10-02T17:20:27.322Z,13.60
2022-10-02T17:27:15.094Z,13.30
2022-10-02T17:33:22.305Z,13.20
2022-10-02T17:40:05.089Z,13.00
2022-10-02T17:46:18.931Z,12.90
2022-10-02T17:53:03.540Z,12.80
2022-10-02T17:59:34.747Z,12.70
2022-10-02T18:06:26.921Z,12.50
2022-10-02T18:12:56.544Z,12.30
2022-10-02T18:19:48.865Z,12.20
2022-10-02T18:33:33.212Z,12.00
2022-10-02T18:40:15.519Z,11.80
2022-10-02T18:46:32.593Z,11.50
2022-10-02T19:00:15.607Z,11.10
2022-10-02T19:06:34.517Z,11.10
2022-10-02T19:12:42.980Z,11.10
2022-10-02T19:18:46.336Z,11.00
2022-10-02T19:25:35.161Z,10.90
2022-10-02T19:31:39.918Z,10.90
2022-10-02T19:37:54.961Z,10.90
2022-10-02T19:44:03.281Z,10.90
2022-10-02T19:50:08.541Z,10.80
2022-10-02T19:56:26.344Z,10.70
2022-10-02T20:02:36.665Z,10.60
2022-10-02T20:09:19.306Z,10.60
2022-10-02T20:16:18.249Z,10.50
2022-10-02T20:22:50.116Z,10.70
2022-10-02T20:29:03.301Z,10.70
2022-10-02T20:35:45.094Z,10.60
2022-10-02T20:42:35.627Z,10.60
2022-10-02T20:49:13.753Z,10.70
2022-10-02T20:56:12.484Z,10.80
2022-10-02T21:02:59.849Z,10.80
2022-10-02T21:09:34.175Z,10.80
2022-10-02T21:15:52.167Z,10.70
2022-10-02T21:22:02.941Z,10.70
2022-10-02T21:28:41.365Z,10.40
2022-10-02T21:35:19.219Z,10.30
2022-10-02T21:41:49.074Z,10.20
2022-10-02T21:48:35.054Z,10.10
2022-10-02T22:01:57.460Z,10.60
2022-10-02T22:08:17.145Z,10.70
2022-10-02T22:14:40.763Z,10.70
2022-10-02T22:21:21.945Z,10.80
2022-10-02T22:28:03.278Z,10.80
2022-10-02T22:34:10.923Z,10.80
2022-10-02T22:40:28.070Z,10.80
2022-10-02T22:46:47.618Z,10.80
2022-10-02T22:53:31.002Z,10.80
2022-10-02T23:00:11.058Z,10.80
2022-10-02T23:06:31.666Z,10.70
2022-10-02T23:12:59.256Z,10.70
2022-10-02T23:19:28.446Z,10.50
2022-10-02T23:26:13.184Z,10.50
2022-10-02T23:32:50.945Z,10.50
2022-10-02T23:39:01.825Z,10.40
2022-10-02T23:45:27.214Z,10.60
2022-10-02T23:52:35.051Z,10.60
2022-10-02T23:58:55.740Z,10.60
